createdAt,value
2023-01-07T00:01:24.962Z,95.05
2023-01-07T00:03:52.664Z,94.40
2023-01-07T00:06:23.369Z,95.73
2023-01-07T00:08:51.804Z,95.85
2023-01-07T00:11:21.117Z,95.95
2023-01-07T00:13:52.041Z,96.45
2023-01-07T00:16:21.958Z,96.82
2023-01-07T00:18:50.404Z,97.35
2023-01-07T00:21:18.538Z,98.67
2023-01-07T00:23:46.426Z,99.75
2023-01-07T00:26:18.591Z,100.00
2023-01-07T00:28:47.717Z,100.00
2023-01-07T00:31:20.465Z,99.69
2023-01-07T00:33:54.335Z,100.00
2023-01-07T00:36:27.415Z,100.00
2023-01-07T00:38:55.460Z,100.00
2023-01-07T00:41:22.711Z,100.00
2023-01-07T00:43:49.310Z,99.27
2023-01-07T00:46:16.230Z,99.37
2023-01-07T00:48:44.902Z,99.98
2023-01-07T00:51:13.544Z,99.82
2023-01-07T00:53:40.153Z,100.00
2023-01-07T00:56:06.960Z,100.00
2023-01-07T00:58:33.531Z,100.00
2023-01-07T01:01:01.956Z,100.00
2023-01-07T01:03:30.591Z,100.00
2023-01-07T01:06:02.628Z,100.00
2023-01-07T01:08:29.247Z,100.00
2023-01-07T01:10:56.053Z,100.00
2023-01-07T01:13:22.690Z,100.00
2023-01-07T01:15:49.748Z,100.00
2023-01-07T01:18:16.503Z,100.00
2023-01-07T01:20:43.218Z,100.00
2023-01-07T01:23:09.827Z,100.00
2023-01-07T01:25:36.407Z,100.00
2023-01-07T01:28:03.428Z,100.00
2023-01-07T01:30:29.987Z,100.00
2023-01-07T01:32:56.531Z,99.86
2023-01-07T01:35:23.183Z,100.00
2023-01-07T01:37:50.030Z,99.54
2023-01-07T01:40:16.697Z,100.00
2023-01-07T01:42:43.300Z,99.45
2023-01-07T01:45:11.856Z,100.00
2023-01-07T01:47:47.261Z,100.00
2023-01-07T01:50:42.279Z,99.24
2023-01-07T01:53:14.220Z,100.00
2023-01-07T01:55:47.535Z,99.55
2023-01-07T01:58:20.506Z,100.00
2023-01-07T02:00:47.334Z,99.97
2023-01-07T02:03:18.786Z,100.00
2023-01-07T02:05:46.256Z,100.00
2023-01-07T02:08:13.450Z,99.76
2023-01-07T02:10:40.151Z,100.00
2023-01-07T02:13:06.655Z,99.97
2023-01-07T02:15:51.789Z,100.00
2023-01-07T02:18:43.490Z,100.00
2023-01-07T02:21:21.801Z,100.00
2023-01-07T02:24:25.909Z,100.00
2023-01-07T02:27:01.159Z,100.00
2023-01-07T02:30:01.377Z,100.00
2023-01-07T02:32:31.017Z,100.00
2023-01-07T02:35:24.643Z,100.00
2023-01-07T02:38:17.579Z,100.00
2023-01-07T02:41:02.443Z,100.00
2023-01-07T02:43:42.446Z,100.00
2023-01-07T02:46:24.181Z,100.00
2023-01-07T02:48:51.439Z,99.88
2023-01-07T02:51:18.021Z,99.40
2023-01-07T02:53:48.484Z,98.92
2023-01-07T02:56:30.285Z,98.91
2023-01-07T02:59:17.129Z,99.33
2023-01-07T03:02:14.016Z,99.27
2023-01-07T03:05:10.116Z,99.49
2023-01-07T03:08:15.260Z,99.70
2023-01-07T03:10:53.607Z,99.15
2023-01-07T03:13:37.628Z,99.70
2023-01-07T03:16:18.445Z,98.98
2023-01-07T03:18:56.270Z,100.00
2023-01-07T03:21:26.463Z,99.77
2023-01-07T03:23:56.752Z,100.00
2023-01-07T03:26:30.178Z,100.00
2023-01-07T03:29:00.129Z,99.20
2023-01-07T03:31:28.224Z,98.72
2023-01-07T03:33:57.568Z,98.85
2023-01-07T03:36:30.175Z,99.75
2023-01-07T03:38:57.068Z,99.45
2023-01-07T03:41:42.063Z,100.00
2023-01-07T03:44:08.623Z,100.00
2023-01-07T03:46:37.594Z,100.00
2023-01-07T03:49:04.800Z,99.44
2023-01-07T03:51:31.394Z,99.48
2023-01-07T03:53:57.996Z,99.47
2023-01-07T03:56:24.559Z,99.67
2023-01-07T03:58:51.172Z,98.94
2023-01-07T04:01:17.849Z,99.00
2023-01-07T04:03:44.472Z,98.59
2023-01-07T04:06:11.005Z,98.51
2023-01-07T04:08:37.687Z,98.66
2023-01-07T04:11:04.403Z,99.00
2023-01-07T04:13:31.205Z,99.43
2023-01-07T04:15:57.781Z,99.67
2023-01-07T04:18:25.444Z,100.00
2023-01-07T04:20:52.013Z,100.00
2023-01-07T04:23:18.615Z,100.00
2023-01-07T04:25:49.279Z,100.00
2023-01-07T04:28:16.207Z,100.00
2023-01-07T04:30:42.931Z,100.00
2023-01-07T04:33:09.614Z,100.00
2023-01-07T04:35:36.177Z,99.99
2023-01-07T04:38:02.792Z,99.99
2023-01-07T04:40:29.392Z,100.00
2023-01-07T04:42:56.009Z,100.00
2023-01-07T04:45:22.606Z,100.00
2023-01-07T04:47:49.215Z,100.00
2023-01-07T04:50:16.039Z,100.00
2023-01-07T04:52:42.966Z,100.00
2023-01-07T04:55:11.078Z,100.00
2023-01-07T04:57:37.753Z,100.00
2023-01-07T05:00:05.198Z,100.00
2023-01-07T05:02:31.936Z,100.00
2023-01-07T05:04:59.174Z,100.00
2023-01-07T05:07:25.778Z,100.00
2023-01-07T05:09:53.057Z,100.00
2023-01-07T05:12:19.597Z,100.00
2023-01-07T05:14:46.176Z,100.00
2023-01-07T05:17:12.736Z,100.00
2023-01-07T05:19:39.273Z,100.00
2023-01-07T05:22:05.903Z,100.00
2023-01-07T05:24:32.446Z,100.00
2023-01-07T05:26:59.095Z,100.00
2023-01-07T05:29:25.695Z,100.00
2023-01-07T05:31:52.360Z,100.00
2023-01-07T05:34:18.937Z,100.00
2023-01-07T05:36:45.528Z,100.00
2023-01-07T05:39:12.185Z,100.00
2023-01-07T05:41:38.776Z,100.00
2023-01-07T05:44:05.383Z,100.00
2023-01-07T05:46:31.999Z,100.00
2023-01-07T05:48:58.602Z,100.00
2023-01-07T05:51:25.320Z,100.00
2023-01-07T05:53:51.916Z,100.00
2023-01-07T05:56:18.827Z,100.00
2023-01-07T05:58:45.391Z,100.00
2023-01-07T06:01:12.030Z,100.00
2023-01-07T06:03:38.670Z,100.00
2023-01-07T06:06:07.446Z,100.00
2023-01-07T06:08:35.527Z,100.00
2023-01-07T06:11:02.510Z,100.00
2023-01-07T06:13:29.130Z,100.00
2023-01-07T06:16:04.163Z,100.00
2023-01-07T06:18:31.119Z,100.00
2023-01-07T06:20:57.718Z,100.00
2023-01-07T06:23:24.636Z,100.00
2023-01-07T06:25:51.348Z,100.00
2023-01-07T06:28:18.324Z,100.00
2023-01-07T06:30:46.436Z,100.00
2023-01-07T06:33:14.588Z,100.00
2023-01-07T06:35:41.508Z,100.00
2023-01-07T06:38:08.256Z,100.00
2023-01-07T06:40:34.879Z,100.00
2023-01-07T06:43:01.449Z,100.00
2023-01-07T06:45:28.177Z,100.00
2023-01-07T06:47:57.365Z,100.00
2023-01-07T06:50:24.532Z,100.00
2023-01-07T06:52:51.284Z,100.00
2023-01-07T06:55:17.995Z,100.00
2023-01-07T06:57:44.645Z,100.00
2023-01-07T07:00:11.848Z,100.00
2023-01-07T07:02:38.506Z,100.00
2023-01-07T07:05:05.419Z,100.00
2023-01-07T07:07:32.006Z,100.00
2023-01-07T07:09:58.782Z,100.00
2023-01-07T07:12:25.369Z,100.00
2023-01-07T07:14:51.932Z,100.00
2023-01-07T07:17:18.547Z,100.00
2023-01-07T07:19:45.099Z,100.00
2023-01-07T07:22:11.867Z,100.00
2023-01-07T07:24:38.457Z,100.00
2023-01-07T07:27:05.055Z,100.00
2023-01-07T07:29:31.649Z,100.00
2023-01-07T07:31:58.310Z,100.00
2023-01-07T07:34:24.913Z,100.00
2023-01-07T07:36:51.508Z,100.00
2023-01-07T07:39:18.151Z,100.00
2023-01-07T07:41:44.973Z,100.00
2023-01-07T07:44:11.583Z,100.00
2023-01-07T07:46:39.586Z,100.00
2023-01-07T07:49:09.568Z,100.00
2023-01-07T07:51:36.119Z,100.00
2023-01-07T07:54:02.747Z,100.00
2023-01-07T07:56:29.461Z,100.00
2023-01-07T07:58:56.012Z,100.00
2023-01-07T08:01:22.769Z,100.00
2023-01-07T08:03:49.393Z,100.00
2023-01-07T08:06:16.043Z,100.00
2023-01-07T08:08:42.694Z,100.00
2023-01-07T08:11:09.650Z,100.00
2023-01-07T08:13:36.239Z,100.00
2023-01-07T08:16:02.856Z,100.00
2023-01-07T08:18:29.485Z,100.00
2023-01-07T08:20:56.375Z,100.00
2023-01-07T08:23:23.282Z,100.00
2023-01-07T08:25:49.817Z,100.00
2023-01-07T08:28:16.466Z,100.00
2023-01-07T08:30:43.107Z,100.00
2023-01-07T08:33:09.762Z,100.00
2023-01-07T08:35:36.419Z,100.00
2023-01-07T08:38:08.706Z,100.00
2023-01-07T08:40:36.883Z,100.00
2023-01-07T08:43:07.457Z,100.00
2023-01-07T08:45:34.466Z,100.00
2023-01-07T08:48:01.195Z,100.00
2023-01-07T08:50:29.960Z,100.00
2023-01-07T08:52:56.817Z,100.00
2023-01-07T08:55:23.815Z,100.00
2023-01-07T08:57:52.188Z,90.66
2023-01-07T09:00:19.527Z,87.70
2023-01-07T09:02:46.332Z,86.46
2023-01-07T09:05:13.518Z,80.19
2023-01-07T09:07:40.163Z,77.96
2023-01-07T09:10:07.495Z,74.98
2023-01-07T09:12:34.137Z,68.84
2023-01-07T09:15:00.794Z,70.69
2023-01-07T09:17:28.081Z,64.17
2023-01-07T09:19:54.764Z,62.22
2023-01-07T09:22:22.220Z,60.39
2023-01-07T09:24:48.801Z,58.76
2023-01-07T09:27:16.698Z,55.47
2023-01-07T09:29:43.486Z,56.09
2023-01-07T09:32:10.717Z,52.49
2023-01-07T09:34:38.468Z,50.46
2023-01-07T09:37:06.212Z,52.35
2023-01-07T09:39:33.056Z,51.55
2023-01-07T09:42:33.801Z,47.26
2023-01-07T09:45:45.500Z,47.25
2023-01-07T09:48:22.033Z,45.33
2023-01-07T09:51:02.045Z,46.38
2023-01-07T09:53:39.409Z,42.53
2023-01-07T09:56:12.979Z,42.12
2023-01-07T09:58:42.533Z,41.86
2023-01-07T10:01:32.141Z,40.52
2023-01-07T10:04:10.903Z,41.09
2023-01-07T10:07:45.044Z,40.73
2023-01-07T10:10:26.080Z,37.78
2023-01-07T10:13:20.350Z,38.12
2023-01-07T10:16:22.353Z,36.42
2023-01-07T10:19:27.352Z,36.83
2023-01-07T10:21:58.950Z,34.98
2023-01-07T10:24:28.795Z,35.36
2023-01-07T10:27:01.564Z,34.10
2023-01-07T10:29:44.711Z,35.03
2023-01-07T10:32:16.890Z,33.86
2023-01-07T10:34:56.695Z,33.93
2023-01-07T10:37:36.368Z,34.03
2023-01-07T10:40:24.224Z,31.91
2023-01-07T10:43:16.224Z,31.74
2023-01-07T10:45:54.950Z,32.85
2023-01-07T10:48:30.216Z,32.52
2023-01-07T10:51:18.127Z,32.37
2023-01-07T10:54:15.563Z,31.37
2023-01-07T10:56:49.611Z,30.59
2023-01-07T10:59:19.562Z,30.57
2023-01-07T11:01:50.533Z,30.13
2023-01-07T11:04:17.941Z,30.91
2023-01-07T11:06:47.747Z,29.96
2023-01-07T11:09:20.011Z,29.43
2023-01-07T11:11:48.361Z,29.69
2023-01-07T11:14:37.667Z,29.05
2023-01-07T11:17:18.476Z,28.24
2023-01-07T11:19:54.196Z,28.51
2023-01-07T11:22:26.899Z,28.44
2023-01-07T11:24:58.593Z,28.27
2023-01-07T11:27:30.297Z,28.28
2023-01-07T11:30:05.503Z,27.70
2023-01-07T11:32:35.332Z,28.66
2023-01-07T11:35:18.092Z,28.23
2023-01-07T11:37:48.601Z,27.13
2023-01-07T11:40:15.161Z,27.62
2023-01-07T11:43:20.328Z,27.14
2023-01-07T11:46:19.644Z,27.20
2023-01-07T11:48:50.022Z,27.51
2023-01-07T11:51:17.092Z,27.29
2023-01-07T11:53:52.848Z,27.57
2023-01-07T11:56:30.621Z,26.40
2023-01-07T11:59:12.380Z,27.01
2023-01-07T12:01:43.407Z,27.46
2023-01-07T12:04:29.665Z,26.27
2023-01-07T12:07:00.384Z,27.22
2023-01-07T12:09:33.840Z,28.19
2023-01-07T12:12:31.939Z,27.51
2023-01-07T12:15:05.930Z,27.50
2023-01-07T12:17:35.221Z,27.30
2023-01-07T12:20:33.450Z,26.30
2023-01-07T12:23:25.918Z,27.26
2023-01-07T12:26:12.691Z,28.00
2023-01-07T12:29:01.999Z,27.46
2023-01-07T12:32:12.052Z,27.13
2023-01-07T12:35:15.487Z,27.42
2023-01-07T12:37:48.648Z,27.76
2023-01-07T12:40:18.178Z,27.42
2023-01-07T12:42:53.886Z,27.06
2023-01-07T12:45:33.911Z,27.28
2023-01-07T12:48:07.067Z,27.68
2023-01-07T12:50:43.641Z,28.30
2023-01-07T12:53:36.593Z,27.70
2023-01-07T12:56:23.931Z,28.47
2023-01-07T12:58:55.196Z,28.47
2023-01-07T13:01:30.224Z,28.16
2023-01-07T13:03:56.773Z,28.49
2023-01-07T13:06:38.469Z,29.03
2023-01-07T13:09:18.318Z,28.36
2023-01-07T13:12:45.915Z,28.74
2023-01-07T13:15:22.986Z,28.46
2023-01-07T13:17:51.279Z,28.79
2023-01-07T13:20:28.416Z,29.17
2023-01-07T13:22:57.938Z,30.06
2023-01-07T13:25:39.914Z,30.44
2023-01-07T13:28:21.733Z,30.73
2023-01-07T13:31:10.288Z,31.24
2023-01-07T13:33:36.839Z,31.64
2023-01-07T13:36:06.411Z,31.89
2023-01-07T13:38:54.087Z,31.56
2023-01-07T13:41:34.587Z,31.25
2023-01-07T13:44:43.227Z,31.85
2023-01-07T13:47:14.539Z,32.35
2023-01-07T13:49:56.495Z,32.77
2023-01-07T13:52:27.703Z,32.80
2023-01-07T13:54:56.933Z,32.80
2023-01-07T13:57:23.437Z,32.79
2023-01-07T13:59:52.850Z,33.47
2023-01-07T14:02:28.343Z,34.15
2023-01-07T14:05:29.210Z,34.18
2023-01-07T14:07:59.901Z,35.07
2023-01-07T14:10:34.965Z,35.34
2023-01-07T14:13:20.555Z,35.11
2023-01-07T14:15:59.503Z,35.20
2023-01-07T14:18:48.273Z,36.76
2023-01-07T14:21:22.530Z,37.23
2023-01-07T14:24:04.033Z,37.37
2023-01-07T14:26:41.966Z,37.72
2023-01-07T14:29:11.222Z,38.08
2023-01-07T14:31:37.921Z,38.46
2023-01-07T14:34:19.163Z,40.33
2023-01-07T14:37:09.738Z,41.15
2023-01-07T14:39:44.688Z,40.86
2023-01-07T14:42:20.357Z,40.97
2023-01-07T14:44:48.706Z,42.05
2023-01-07T14:47:41.034Z,42.74
2023-01-07T14:50:22.158Z,43.46
2023-01-07T14:52:48.675Z,43.31
2023-01-07T14:55:38.044Z,45.56
2023-01-07T14:58:25.755Z,46.27
2023-01-07T15:00:58.502Z,45.83
2023-01-07T15:03:59.524Z,45.48
2023-01-07T15:06:30.910Z,47.19
2023-01-07T15:09:24.344Z,48.72
2023-01-07T15:12:11.848Z,51.07
2023-01-07T15:15:07.861Z,50.52
2023-01-07T15:17:38.324Z,52.20
2023-01-07T15:20:06.484Z,52.97
2023-01-07T15:23:06.990Z,52.79
2023-01-07T15:25:56.527Z,52.90
2023-01-07T15:28:36.355Z,53.62
2023-01-07T15:31:36.866Z,53.75
2023-01-07T15:34:16.625Z,55.17
2023-01-07T15:36:49.801Z,56.98
2023-01-07T15:39:41.377Z,56.97
2023-01-07T15:42:16.145Z,56.75
2023-01-07T15:44:43.183Z,56.22
2023-01-07T15:47:41.617Z,58.85
2023-01-07T15:50:30.980Z,58.71
2023-01-07T15:53:22.191Z,61.58
2023-01-07T15:55:48.716Z,61.05
2023-01-07T15:58:19.642Z,62.16
2023-01-07T16:00:54.482Z,63.20
2023-01-07T16:03:21.925Z,64.50
2023-01-07T16:05:48.824Z,64.46
2023-01-07T16:08:27.177Z,64.78
2023-01-07T16:11:03.878Z,66.18
2023-01-07T16:13:31.497Z,66.08
2023-01-07T16:16:03.245Z,66.64
2023-01-07T16:18:34.156Z,65.93
2023-01-07T16:21:12.755Z,67.96
2023-01-07T16:23:40.381Z,67.95
2023-01-07T16:26:08.548Z,67.82
2023-01-07T16:28:41.965Z,69.69
2023-01-07T16:31:15.070Z,70.07
2023-01-07T16:33:43.169Z,69.65
2023-01-07T16:36:23.161Z,70.45
2023-01-07T16:38:56.836Z,72.30
2023-01-07T16:41:28.609Z,72.57
2023-01-07T16:43:56.689Z,73.46
2023-01-07T16:46:27.528Z,74.41
2023-01-07T16:49:09.693Z,74.04
2023-01-07T16:51:47.229Z,74.32
2023-01-07T16:54:28.257Z,74.81
2023-01-07T16:56:55.927Z,75.10
2023-01-07T16:59:26.427Z,75.45
2023-01-07T17:01:53.736Z,75.01
2023-01-07T17:04:27.812Z,77.43
2023-01-07T17:06:54.647Z,75.84
2023-01-07T17:09:32.705Z,76.65
2023-01-07T17:11:59.459Z,76.65
2023-01-07T17:14:38.206Z,77.21
2023-01-07T17:17:19.634Z,77.42
2023-01-07T17:20:12.541Z,77.90
2023-01-07T17:22:39.591Z,78.53
2023-01-07T17:25:07.105Z,78.84
2023-01-07T17:27:34.785Z,78.83
2023-01-07T17:30:03.084Z,79.61
2023-01-07T17:32:31.226Z,79.52
2023-01-07T17:35:04.037Z,79.60
2023-01-07T17:37:31.887Z,80.51
2023-01-07T17:39:58.623Z,80.64
2023-01-07T17:42:47.988Z,81.06
2023-01-07T17:45:17.071Z,81.11
2023-01-07T17:47:43.809Z,81.56
2023-01-07T17:50:13.442Z,81.37
2023-01-07T17:52:42.155Z,81.54
2023-01-07T17:55:14.101Z,82.55
2023-01-07T17:57:40.656Z,82.83
2023-01-07T18:00:12.511Z,82.68
2023-01-07T18:02:39.203Z,83.82
2023-01-07T18:05:06.319Z,83.52
2023-01-07T18:07:32.850Z,84.96
2023-01-07T18:09:59.449Z,84.75
2023-01-07T18:12:33.407Z,85.79
2023-01-07T18:15:04.248Z,86.05
2023-01-07T18:17:30.934Z,85.82
2023-01-07T18:19:57.560Z,85.85
2023-01-07T18:22:25.348Z,86.47
2023-01-07T18:24:52.127Z,86.49
2023-01-07T18:27:19.335Z,86.66
2023-01-07T18:29:45.971Z,87.17
2023-01-07T18:32:12.568Z,87.75
2023-01-07T18:34:39.156Z,88.01
2023-01-07T18:37:06.064Z,88.34
2023-01-07T18:39:32.672Z,88.71
2023-01-07T18:41:59.279Z,89.01
2023-01-07T18:44:26.002Z,88.98
2023-01-07T18:46:52.628Z,89.57
2023-01-07T18:49:19.341Z,89.73
2023-01-07T18:51:47.680Z,89.68
2023-01-07T18:54:15.350Z,89.70
2023-01-07T18:56:42.025Z,89.88
2023-01-07T18:59:08.613Z,90.63
2023-01-07T19:01:35.304Z,90.87
2023-01-07T19:04:02.586Z,90.73
2023-01-07T19:06:29.277Z,91.17
2023-01-07T19:08:56.989Z,90.76
2023-01-07T19:11:23.658Z,91.04
2023-01-07T19:13:50.254Z,90.66
2023-01-07T19:16:16.869Z,90.77
2023-01-07T19:18:43.471Z,90.88
2023-01-07T19:21:12.168Z,91.19
2023-01-07T19:23:38.972Z,92.21
2023-01-07T19:26:08.377Z,92.50
2023-01-07T19:28:35.687Z,92.18
2023-01-07T19:31:07.160Z,92.17
2023-01-07T19:33:34.897Z,92.86
2023-01-07T19:36:03.704Z,93.20
2023-01-07T19:38:30.645Z,92.90
2023-01-07T19:40:57.239Z,93.25
2023-01-07T19:43:23.900Z,93.77
2023-01-07T19:45:55.599Z,94.19
2023-01-07T19:48:23.330Z,94.44
2023-01-07T19:51:08.725Z,93.97
2023-01-07T19:53:35.787Z,94.20
2023-01-07T19:56:05.538Z,94.25
2023-01-07T19:58:32.801Z,94.40
2023-01-07T20:01:07.698Z,94.24
2023-01-07T20:03:35.455Z,94.50
2023-01-07T20:06:10.118Z,94.96
2023-01-07T20:08:37.139Z,94.79
2023-01-07T20:11:03.982Z,95.05
2023-01-07T20:13:35.623Z,94.87
2023-01-07T20:16:07.361Z,95.19
2023-01-07T20:18:42.646Z,95.18
2023-01-07T20:21:10.131Z,95.58
2023-01-07T20:23:41.041Z,95.43
2023-01-07T20:26:18.715Z,95.79
2023-01-07T20:28:46.186Z,95.65
2023-01-07T20:31:15.028Z,95.76
2023-01-07T20:33:42.459Z,95.70
2023-01-07T20:36:12.180Z,96.15
2023-01-07T20:38:39.287Z,95.83
2023-01-07T20:41:08.529Z,96.07
2023-01-07T20:43:36.559Z,95.91
2023-01-07T20:46:06.177Z,96.31
2023-01-07T20:48:33.789Z,96.23
2023-01-07T20:51:05.278Z,96.17
2023-01-07T20:53:31.963Z,96.57
2023-01-07T20:56:00.047Z,96.51
2023-01-07T20:58:27.936Z,96.47
2023-01-07T21:00:54.624Z,96.72
2023-01-07T21:03:21.447Z,96.35
2023-01-07T21:05:48.148Z,96.93
2023-01-07T21:08:14.771Z,96.85
2023-01-07T21:10:41.552Z,96.67
2023-01-07T21:13:08.153Z,96.90
2023-01-07T21:15:36.576Z,97.41
2023-01-07T21:18:03.274Z,97.38
2023-01-07T21:20:29.907Z,97.48
2023-01-07T21:22:56.431Z,97.42
2023-01-07T21:25:23.067Z,97.54
2023-01-07T21:27:49.706Z,97.74
2023-01-07T21:30:18.180Z,97.58
2023-01-07T21:32:44.951Z,97.88
2023-01-07T21:35:12.403Z,97.68
2023-01-07T21:37:39.872Z,97.71
2023-01-07T21:40:07.340Z,97.97
2023-01-07T21:42:36.687Z,97.97
2023-01-07T21:45:03.964Z,97.96
2023-01-07T21:47:30.636Z,98.25
2023-01-07T21:49:58.405Z,97.83
2023-01-07T21:52:25.108Z,98.08
2023-01-07T21:54:52.015Z,98.43
2023-01-07T21:57:19.511Z,98.60
2023-01-07T21:59:46.431Z,98.45
2023-01-07T22:02:13.773Z,98.42
2023-01-07T22:04:43.475Z,98.73
2023-01-07T22:07:14.000Z,98.68
2023-01-07T22:09:40.958Z,98.93
2023-01-07T22:12:08.689Z,98.64
2023-01-07T22:14:35.281Z,99.27
2023-01-07T22:17:01.916Z,98.85
2023-01-07T22:19:28.711Z,98.92
2023-01-07T22:21:55.620Z,99.16
2023-01-07T22:24:22.179Z,99.06
2023-01-07T22:26:48.870Z,99.15
2023-01-07T22:29:17.373Z,99.49
2023-01-07T22:31:48.183Z,99.55
2023-01-07T22:34:14.903Z,99.63
2023-01-07T22:36:48.140Z,99.86
2023-01-07T22:39:25.959Z,99.82
2023-01-07T22:41:57.338Z,99.85
2023-01-07T22:44:33.338Z,99.73
2023-01-07T22:47:00.235Z,99.55
2023-01-07T22:49:30.484Z,99.72
2023-01-07T22:51:57.483Z,99.61
2023-01-07T22:54:26.131Z,99.79
2023-01-07T22:56:53.001Z,100.00
2023-01-07T22:59:19.542Z,99.95
2023-01-07T23:01:46.114Z,99.86
2023-01-07T23:04:13.259Z,100.00
2023-01-07T23:06:39.926Z,100.00
2023-01-07T23:09:06.635Z,99.84
2023-01-07T23:11:48.282Z,99.90
2023-01-07T23:14:16.849Z,100.00
2023-01-07T23:16:43.835Z,100.00
2023-01-07T23:19:10.851Z,100.00
2023-01-07T23:21:40.104Z,100.00
2023-01-07T23:24:07.380Z,100.00
2023-01-07T23:26:33.935Z,100.00
2023-01-07T23:29:00.499Z,99.92
2023-01-07T23:31:27.291Z,99.73
2023-01-07T23:33:53.912Z,100.00
2023-01-07T23:36:20.485Z,99.97
2023-01-07T23:38:47.156Z,100.00
2023-01-07T23:41:13.964Z,100.00
2023-01-07T23:43:40.658Z,99.97
2023-01-07T23:46:08.436Z,100.00
2023-01-07T23:48:37.231Z,100.00
2023-01-07T23:51:09.562Z,100.00
2023-01-07T23:53:36.436Z,100.00
2023-01-07T23:56:03.724Z,100.00
2023-01-07T23:58:30.841Z,100.00
